Nireas — SX9654 — position and weather

sailwx.info

Track history (hours):
 
Tides and Currents Weather Stations Pressure Air Temp Water Temp Dewpoint Dewpoint Depression Visibility Wind Speed Wind Dir Waves Ship Positions

Nireas

Last reported at 2015-Jun-08 10:22 UTC. Time now 2015-Aug-03 17:10 UTC.
Position N 39°29' E 020°12'.
Warning: this ship's position is 56 days out of date.

Length 61 m; draft 2.5 m.

Type: Passenger vessel. MMSI: 237470300.

Date/timePositionNaut miles runAvg speedWind from/ knotsBaromVisibWave heightAir tempDewpointWater temp
2015-Jun-08 10:22N 39°29' E 020°12'3 3.6
2015-Jun-08 09:33N 39°30' E 020°16'8 8.2
2015-Jun-08 08:34N 39°32' E 020°06'1010.2
2015-Jun-08 07:34N 39°38' E 019°54'0 0.0
2015-Jun-08 06:33N 39°38' E 019°54'8 7.7
2015-Jun-08 05:34N 39°34' E 020°03'1110.6
2015-Jun-08 04:33N 39°30' E 020°16'17 0.7
2015-Jun-07 06:08N 39°37' E 019°56'610.7
2015-Jun-07 05:34N 39°34' E 020°03'1110.6
2015-Jun-07 04:33N 39°30' E 020°16'5 0.3
2015-Jun-06 14:24N 39°26' E 020°12'1010.9
2015-Jun-06 13:31N 39°17' E 020°12'4 4.6
2015-Jun-06 12:33N 39°12' E 020°11'5 4.9
2015-Jun-06 11:33N 39°17' E 020°12'1210.3
2015-Jun-06 10:24N 39°29' E 020°12'3 3.4
2015-Jun-06 09:33N 39°30' E 020°16'8 7.9
2015-Jun-06 08:34N 39°32' E 020°06'1110.5
2015-Jun-06 07:34N 39°38' E 019°54'17 0.4
2015-Jun-04 14:27N 39°27' E 020°12'1010.8
2015-Jun-04 13:33N 39°17' E 020°12'5 4.9
2015-Jun-04 12:34N 39°12' E 020°11'4 4.4
2015-Jun-04 11:33N 39°17' E 020°12'1110.7
2015-Jun-04 10:32N 39°28' E 020°12'4 3.8
2015-Jun-04 09:34N 39°30' E 020°16'8 8.1
2015-Jun-04 08:34N 39°32' E 020°06'1010.4
2015-Jun-04 07:34N 39°38' E 019°54'0 0.0
2015-Jun-04 06:34N 39°38' E 019°54'8 8.2
2015-Jun-04 05:34N 39°34' E 020°04'10 0.6
2015-Jun-03 14:23N 39°26' E 020°12'911.0
2015-Jun-03 13:31N 39°17' E 020°12'17 0.5
2015-Jun-02 05:31N 39°33' E 020°04'5 0.3
2015-Jun-01 11:24N 39°31' E 020°10'911.1
2015-Jun-01 10:33N 39°36' E 019°60'5 4.6
2015-Jun-01 09:34N 39°38' E 019°54'0 0.0
2015-Jun-01 08:34N 39°38' E 019°54'8 7.7
2015-Jun-01 07:33N 39°34' E 020°03'1110.5
2015-Jun-01 06:34N 39°30' E 020°16'4 3.5
2015-Jun-01 05:25N 39°30' E 020°10'10 3.6
2015-Jun-01 02:33N 39°36' E 019°59'1410.6
2015-Jun-01 01:15N 39°30' E 020°15'4 0.3
2015-May-31 11:21N 39°31' E 020°10'911.1
2015-May-31 10:34N 39°35' E 020°01'5 5.4
2015-May-31 09:34N 39°38' E 019°54'0 0.0
2015-May-31 08:34N 39°38' E 019°54'8 7.6
2015-May-31 07:33N 39°34' E 020°03'1110.6
2015-May-31 06:34N 39°30' E 020°16'4 3.7
2015-May-31 05:24N 39°31' E 020°10'910.8
2015-May-31 04:34N 39°35' E 020°00'5 5.1
2015-May-31 03:33N 39°38' E 019°54'3 3.3
2015-May-31 02:33N 39°36' E 019°58'1210.8
2015-May-31 01:26N 39°30' E 020°12'3 0.3
2015-May-30 16:18N 39°30' E 020°16'810.5
2015-May-30 15:34N 39°32' E 020°06'1010.5
2015-May-30 14:34N 39°38' E 019°54'0 0.0
2015-May-30 13:33N 39°38' E 019°54'3 3.1
2015-May-30 12:33N 39°37' E 019°58'1110.5
2015-May-30 11:33N 39°31' E 020°09'5 5.0
2015-May-30 10:33N 39°30' E 020°16'8 8.0
2015-May-30 09:34N 39°32' E 020°06'1010.5
2015-May-30 08:34N 39°38' E 019°54'0 0.0
2015-May-30 07:34N 39°38' E 019°54'0 0.0
2015-May-30 06:34N 39°38' E 019°54'9 9.3
2015-May-30 05:34N 39°33' E 020°05'9 0.7
2015-May-29 16:19N 39°30' E 020°16'810.7
2015-May-29 15:34N 39°32' E 020°06'1010.4
2015-May-29 14:34N 39°38' E 019°54'0 0.0
2015-May-29 13:34N 39°38' E 019°54'4 4.3
2015-May-29 12:33N 39°36' E 019°59'1310.4
2015-May-29 11:16N 39°30' E 020°15'1 0.9
2015-May-29 10:34N 39°30' E 020°16'  
Track history (hours):
 
Tides and Currents Weather Stations Pressure Air Temp Water Temp Dewpoint Dewpoint Depression Visibility Wind Speed Wind Dir Waves Ship Positions

Nireas

Last reported at 2015-Jun-08 10:22 UTC. Time now 2015-Aug-03 17:10 UTC.
Position N 39°29' E 020°12'.
Warning: this ship's position is 56 days out of date.

Length 61 m; draft 2.5 m.

Type: Passenger vessel. MMSI: 237470300.

Date/timePositionNaut miles runAvg speedWind from/ knotsBaromVisibWave heightAir tempDewpointWater temp
2015-Jun-08 10:22N 39°29' E 020°12'3 3.6
2015-Jun-08 09:33N 39°30' E 020°16'8 8.2
2015-Jun-08 08:34N 39°32' E 020°06'1010.2
2015-Jun-08 07:34N 39°38' E 019°54'0 0.0
2015-Jun-08 06:33N 39°38' E 019°54'8 7.7
2015-Jun-08 05:34N 39°34' E 020°03'1110.6
2015-Jun-08 04:33N 39°30' E 020°16'17 0.7
2015-Jun-07 06:08N 39°37' E 019°56'610.7
2015-Jun-07 05:34N 39°34' E 020°03'1110.6
2015-Jun-07 04:33N 39°30' E 020°16'5 0.3
2015-Jun-06 14:24N 39°26' E 020°12'1010.9
2015-Jun-06 13:31N 39°17' E 020°12'4 4.6
2015-Jun-06 12:33N 39°12' E 020°11'5 4.9
2015-Jun-06 11:33N 39°17' E 020°12'1210.3
2015-Jun-06 10:24N 39°29' E 020°12'3 3.4
2015-Jun-06 09:33N 39°30' E 020°16'8 7.9
2015-Jun-06 08:34N 39°32' E 020°06'1110.5
2015-Jun-06 07:34N 39°38' E 019°54'17 0.4
2015-Jun-04 14:27N 39°27' E 020°12'1010.8
2015-Jun-04 13:33N 39°17' E 020°12'5 4.9
2015-Jun-04 12:34N 39°12' E 020°11'4 4.4
2015-Jun-04 11:33N 39°17' E 020°12'1110.7
2015-Jun-04 10:32N 39°28' E 020°12'4 3.8
2015-Jun-04 09:34N 39°30' E 020°16'8 8.1
2015-Jun-04 08:34N 39°32' E 020°06'1010.4
2015-Jun-04 07:34N 39°38' E 019°54'0 0.0
2015-Jun-04 06:34N 39°38' E 019°54'8 8.2
2015-Jun-04 05:34N 39°34' E 020°04'10 0.6
2015-Jun-03 14:23N 39°26' E 020°12'911.0
2015-Jun-03 13:31N 39°17' E 020°12'17 0.5
2015-Jun-02 05:31N 39°33' E 020°04'5 0.3
2015-Jun-01 11:24N 39°31' E 020°10'911.1
2015-Jun-01 10:33N 39°36' E 019°60'5 4.6
2015-Jun-01 09:34N 39°38' E 019°54'0 0.0
2015-Jun-01 08:34N 39°38' E 019°54'8 7.7
2015-Jun-01 07:33N 39°34' E 020°03'1110.5
2015-Jun-01 06:34N 39°30' E 020°16'4 3.5
2015-Jun-01 05:25N 39°30' E 020°10'10 3.6
2015-Jun-01 02:33N 39°36' E 019°59'1410.6
2015-Jun-01 01:15N 39°30' E 020°15'4 0.3
2015-May-31 11:21N 39°31' E 020°10'911.1
2015-May-31 10:34N 39°35' E 020°01'5 5.4
2015-May-31 09:34N 39°38' E 019°54'0 0.0
2015-May-31 08:34N 39°38' E 019°54'8 7.6
2015-May-31 07:33N 39°34' E 020°03'1110.6
2015-May-31 06:34N 39°30' E 020°16'4 3.7
2015-May-31 05:24N 39°31' E 020°10'910.8
2015-May-31 04:34N 39°35' E 020°00'5 5.1
2015-May-31 03:33N 39°38' E 019°54'3 3.3
2015-May-31 02:33N 39°36' E 019°58'1210.8
2015-May-31 01:26N 39°30' E 020°12'3 0.3
2015-May-30 16:18N 39°30' E 020°16'810.5
2015-May-30 15:34N 39°32' E 020°06'1010.5
2015-May-30 14:34N 39°38' E 019°54'0 0.0
2015-May-30 13:33N 39°38' E 019°54'3 3.1
2015-May-30 12:33N 39°37' E 019°58'1110.5
2015-May-30 11:33N 39°31' E 020°09'5 5.0
2015-May-30 10:33N 39°30' E 020°16'8 8.0
2015-May-30 09:34N 39°32' E 020°06'1010.5
2015-May-30 08:34N 39°38' E 019°54'0 0.0
2015-May-30 07:34N 39°38' E 019°54'0 0.0
2015-May-30 06:34N 39°38' E 019°54'9 9.3
2015-May-30 05:34N 39°33' E 020°05'9 0.7
2015-May-29 16:19N 39°30' E 020°16'810.7
2015-May-29 15:34N 39°32' E 020°06'1010.4
2015-May-29 14:34N 39°38' E 019°54'0 0.0
2015-May-29 13:34N 39°38' E 019°54'4 4.3
2015-May-29 12:33N 39°36' E 019°59'1310.4
2015-May-29 11:16N 39°30' E 020°15'1 0.9
2015-May-29 10:34N 39°30' E 020°16'  

Dump ship's entire track history